Route Details

Aircraft Information
Group: North America Light
Types: B738, B752, B762
Route Data
Distance: 1323nm
Duration: 3h 45m
Origin METAR: MMMX 152354Z 10007KT 5SM -TSRA BKN015CB OVC080 17/14 A3023 NOSIG RMK SLP087 57004 953 8/96/ HZY OCNL LTGICCCCG 1ST QUAD
Dest. METAR: KONT 152353Z 25011G18KT 10SM FEW120 FEW180 36/13 A2978 RMK AO2 SLP062 CB DSNT E AND SE T03560133 10367 20311 56016
Freight Data
(for Aug 16, 2022)
Load Factor:
32%
Manifested Cargo: 30,505lbs
Financial History
Total Freight: 45,370lbs
Average Load: 0lbs/flt
Fuel Used: 36,465lbs
Avg. Fuel Used: 0lbs/flt
Fuel Expense: $21,133
Avg. Fuel Expense: $0
Avg. Fuel Cost: $0/lbs
Total Gross Income: $111,610
Pilot Pay: $538
Total Expenses: $24,780
Total Revenue: $63,293
Average Revenue: $0

Capitol Logistics 702




MMMX
Benito Juárez International Airport
Mexico City, MX
KONT
Ontario International Airport
Ontario, US

Activity Log

Date Flight Route Aircraft Duration
08/07/2022 CPX702 ATUR2B ATURO UT134 ZCL UT10 PPE J93 JLI SETER5 B738 3h 35m
07/08/2022 CPX702 ATUR2B ATURO UT134 ZCL UT10 PPE J93 JLI SETER5 B752 3h 29m